createdAt,value
2022-10-18T00:02:11.161Z,89.89
2022-10-18T00:04:33.145Z,89.62
2022-10-18T00:06:54.914Z,89.61
2022-10-18T00:09:17.205Z,89.55
2022-10-18T00:11:39.296Z,89.48
2022-10-18T00:14:01.206Z,89.38
2022-10-18T00:16:23.532Z,89.45
2022-10-18T00:18:45.731Z,89.58
2022-10-18T00:21:13.800Z,89.51
2022-10-18T00:23:36.370Z,89.63
2022-10-18T00:26:03.009Z,89.63
2022-10-18T00:28:24.858Z,89.66
2022-10-18T00:30:46.672Z,89.56
2022-10-18T00:33:08.460Z,89.44
2022-10-18T00:35:30.262Z,89.67
2022-10-18T00:37:52.081Z,89.59
2022-10-18T00:40:13.899Z,89.59
2022-10-18T00:42:37.876Z,89.53
2022-10-18T00:45:24.273Z,89.59
2022-10-18T00:47:57.831Z,89.67
2022-10-18T00:50:23.109Z,89.70
2022-10-18T00:52:54.355Z,89.53
2022-10-18T00:55:16.255Z,89.60
2022-10-18T00:57:42.650Z,89.64
2022-10-18T01:00:09.817Z,89.73
2022-10-18T01:02:32.853Z,89.44
2022-10-18T01:04:55.028Z,89.72
2022-10-18T01:08:00.218Z,89.78
2022-10-18T01:10:37.985Z,89.81
2022-10-18T01:13:25.973Z,89.80
2022-10-18T01:15:59.512Z,89.79
2022-10-18T01:18:35.926Z,89.73
2022-10-18T01:21:45.568Z,89.49
2022-10-18T01:24:30.887Z,89.62
2022-10-18T01:27:11.255Z,89.74
2022-10-18T01:30:09.972Z,89.76
2022-10-18T01:32:42.412Z,89.70
2022-10-18T01:35:14.088Z,89.68
2022-10-18T01:37:38.865Z,89.59
2022-10-18T01:40:08.911Z,89.48
2022-10-18T01:42:31.883Z,89.86
2022-10-18T01:44:54.925Z,89.96
2022-10-18T01:47:19.227Z,89.96
2022-10-18T01:49:41.235Z,89.84
2022-10-18T01:52:03.423Z,89.74
2022-10-18T01:54:34.686Z,89.98
2022-10-18T01:57:16.521Z,89.82
2022-10-18T02:00:19.189Z,89.80
2022-10-18T02:03:10.927Z,89.82
2022-10-18T02:05:57.571Z,89.62
2022-10-18T02:08:28.433Z,89.74
2022-10-18T02:11:08.999Z,89.81
2022-10-18T02:13:40.304Z,89.89
2022-10-18T02:16:10.368Z,89.94
2022-10-18T02:18:41.485Z,89.88
2022-10-18T02:21:08.243Z,90.09
2022-10-18T02:23:32.544Z,89.81
2022-10-18T02:25:54.922Z,89.83
2022-10-18T02:28:16.901Z,89.59
2022-10-18T02:30:57.242Z,89.39
2022-10-18T02:33:33.245Z,89.49
2022-10-18T02:36:06.395Z,89.71
2022-10-18T02:38:31.633Z,89.94
2022-10-18T02:40:53.488Z,89.94
2022-10-18T02:43:15.236Z,89.84
2022-10-18T02:45:37.833Z,89.94
2022-10-18T02:47:59.703Z,89.75
2022-10-18T02:50:21.588Z,89.64
2022-10-18T02:52:43.417Z,89.65
2022-10-18T02:55:07.320Z,89.69
2022-10-18T02:57:30.545Z,89.64
2022-10-18T02:59:52.800Z,89.65
2022-10-18T03:02:14.577Z,89.78
2022-10-18T03:04:36.313Z,89.63
2022-10-18T03:06:58.090Z,89.59
2022-10-18T03:09:19.890Z,89.51
2022-10-18T03:11:41.669Z,89.50
2022-10-18T03:14:03.442Z,89.60
2022-10-18T03:16:25.495Z,89.71
2022-10-18T03:18:47.491Z,89.71
2022-10-18T03:21:10.478Z,89.97
2022-10-18T03:23:32.345Z,90.05
2022-10-18T03:25:54.105Z,89.83
2022-10-18T03:28:15.887Z,90.05
2022-10-18T03:30:38.955Z,89.97
2022-10-18T03:33:00.821Z,90.20
2022-10-18T03:35:22.789Z,89.93
2022-10-18T03:37:44.599Z,90.06
2022-10-18T03:40:07.759Z,90.50
2022-10-18T03:42:30.021Z,90.10
2022-10-18T03:44:52.161Z,90.17
2022-10-18T03:47:14.061Z,90.07
2022-10-18T03:49:35.883Z,90.04
2022-10-18T03:51:57.659Z,90.11
2022-10-18T03:54:19.678Z,90.17
2022-10-18T03:56:41.435Z,90.17
2022-10-18T03:59:04.530Z,90.04
2022-10-18T04:01:26.407Z,90.11
2022-10-18T04:03:48.312Z,90.19
2022-10-18T04:06:10.164Z,90.07
2022-10-18T04:08:31.958Z,89.92
2022-10-18T04:10:53.866Z,89.76
2022-10-18T04:13:15.668Z,89.89
2022-10-18T04:15:38.007Z,89.98
2022-10-18T04:18:01.121Z,90.07
2022-10-18T04:20:24.864Z,90.04
2022-10-18T04:22:51.144Z,90.19
2022-10-18T04:25:12.881Z,90.30
2022-10-18T04:27:35.229Z,90.39
2022-10-18T04:29:57.232Z,90.38
2022-10-18T04:32:18.987Z,90.39
2022-10-18T04:34:40.793Z,90.57
2022-10-18T04:37:02.615Z,90.52
2022-10-18T04:39:24.458Z,90.70
2022-10-18T04:41:46.195Z,90.43
2022-10-18T04:44:08.341Z,90.45
2022-10-18T04:46:30.108Z,90.43
2022-10-18T04:48:51.946Z,90.47
2022-10-18T04:51:13.773Z,90.75
2022-10-18T04:53:35.567Z,90.96
2022-10-18T04:55:57.384Z,90.69
2022-10-18T04:58:19.281Z,90.84
2022-10-18T05:00:42.134Z,90.94
2022-10-18T05:03:04.079Z,90.80
2022-10-18T05:05:37.911Z,90.93
2022-10-18T05:08:07.928Z,90.85
2022-10-18T05:10:29.886Z,91.00
2022-10-18T05:12:51.709Z,91.08
2022-10-18T05:15:13.472Z,90.98
2022-10-18T05:17:35.348Z,91.10
2022-10-18T05:19:57.076Z,91.10
2022-10-18T05:22:18.830Z,91.27
2022-10-18T05:24:40.535Z,91.19
2022-10-18T05:27:02.336Z,91.28
2022-10-18T05:29:24.860Z,91.25
2022-10-18T05:31:49.239Z,91.29
2022-10-18T05:34:11.040Z,91.35
2022-10-18T05:36:32.828Z,91.29
2022-10-18T05:38:56.256Z,91.25
2022-10-18T05:41:18.735Z,91.20
2022-10-18T05:43:41.159Z,91.26
2022-10-18T05:46:04.847Z,91.45
2022-10-18T05:48:26.691Z,91.48
2022-10-18T05:50:48.540Z,91.65
2022-10-18T05:53:12.349Z,91.62
2022-10-18T05:55:40.313Z,91.66
2022-10-18T05:58:03.210Z,91.62
2022-10-18T06:00:25.093Z,91.68
2022-10-18T06:02:46.947Z,91.69
2022-10-18T06:05:09.097Z,91.59
2022-10-18T06:07:31.351Z,91.76
2022-10-18T06:09:53.275Z,91.72
2022-10-18T06:12:15.107Z,91.84
2022-10-18T06:14:37.897Z,91.76
2022-10-18T06:16:59.674Z,91.75
2022-10-18T06:19:21.526Z,91.72
2022-10-18T06:21:44.319Z,91.91
2022-10-18T06:24:06.627Z,91.97
2022-10-18T06:26:28.847Z,92.02
2022-10-18T06:28:50.965Z,92.02
2022-10-18T06:31:14.946Z,92.03
2022-10-18T06:33:37.388Z,92.04
2022-10-18T06:36:06.871Z,92.00
2022-10-18T06:38:30.548Z,92.07
2022-10-18T06:40:53.723Z,92.19
2022-10-18T06:43:21.202Z,92.15
2022-10-18T06:45:43.467Z,92.01
2022-10-18T06:48:05.688Z,92.10
2022-10-18T06:50:27.643Z,92.45
2022-10-18T06:52:51.172Z,92.26
2022-10-18T06:55:13.103Z,92.37
2022-10-18T06:57:34.972Z,92.29
2022-10-18T06:59:57.005Z,92.17
2022-10-18T07:02:19.007Z,92.24
2022-10-18T07:04:40.831Z,92.33
2022-10-18T07:07:02.629Z,92.35
2022-10-18T07:09:24.479Z,92.45
2022-10-18T07:11:46.289Z,92.52
2022-10-18T07:14:09.560Z,92.39
2022-10-18T07:16:34.650Z,92.53
2022-10-18T07:18:56.808Z,92.71
2022-10-18T07:21:25.535Z,92.69
2022-10-18T07:23:48.202Z,92.72
2022-10-18T07:26:27.423Z,92.87
2022-10-18T07:28:57.989Z,92.68
2022-10-18T07:31:20.999Z,92.67
2022-10-18T07:33:45.545Z,92.50
2022-10-18T07:36:08.910Z,92.52
2022-10-18T07:38:30.915Z,92.81
2022-10-18T07:40:58.575Z,93.02
2022-10-18T07:43:20.372Z,93.09
2022-10-18T07:45:53.031Z,93.15
2022-10-18T07:48:14.770Z,92.86
2022-10-18T07:50:36.707Z,92.57
2022-10-18T07:52:58.452Z,92.62
2022-10-18T07:55:20.267Z,92.97
2022-10-18T07:57:42.058Z,92.90
2022-10-18T08:00:04.702Z,92.93
2022-10-18T08:02:33.288Z,92.69
2022-10-18T08:04:55.155Z,92.56
2022-10-18T08:07:16.956Z,92.43
2022-10-18T08:09:39.338Z,92.30
2022-10-18T08:12:01.107Z,92.06
2022-10-18T08:14:22.994Z,91.26
2022-10-18T08:16:44.810Z,91.32
2022-10-18T08:19:06.641Z,91.51
2022-10-18T08:21:28.511Z,91.85
2022-10-18T08:23:50.524Z,91.62
2022-10-18T08:26:16.839Z,90.92
2022-10-18T08:28:39.338Z,91.13
2022-10-18T08:31:11.413Z,91.00
2022-10-18T08:33:35.776Z,90.08
2022-10-18T08:36:00.173Z,89.36
2022-10-18T08:38:21.947Z,89.74
2022-10-18T08:40:44.458Z,89.60
2022-10-18T08:43:21.988Z,89.12
2022-10-18T08:45:44.324Z,89.00
2022-10-18T08:48:08.541Z,89.36
2022-10-18T08:50:36.864Z,88.93
2022-10-18T08:53:19.810Z,88.98
2022-10-18T08:55:47.568Z,88.92
2022-10-18T08:58:26.797Z,88.62
2022-10-18T09:01:30.518Z,88.37
2022-10-18T09:04:23.249Z,88.15
2022-10-18T09:07:18.601Z,88.51
2022-10-18T09:10:18.508Z,88.23
2022-10-18T09:13:20.460Z,87.94
2022-10-18T09:16:02.938Z,86.88
2022-10-18T09:18:51.492Z,86.07
2022-10-18T09:21:29.838Z,86.36
2022-10-18T09:24:12.639Z,86.29
2022-10-18T09:26:47.337Z,86.08
2022-10-18T09:30:05.853Z,85.60
2022-10-18T09:32:45.717Z,85.77
2022-10-18T09:35:25.772Z,85.34
2022-10-18T09:37:49.349Z,84.52
2022-10-18T09:40:28.189Z,83.16
2022-10-18T09:43:06.292Z,82.98
2022-10-18T09:45:34.665Z,82.98
2022-10-18T09:48:13.175Z,82.48
2022-10-18T09:50:48.849Z,82.00
2022-10-18T09:53:15.380Z,80.89
2022-10-18T09:55:55.245Z,79.36
2022-10-18T09:58:20.442Z,78.83
2022-10-18T10:00:50.332Z,78.98
2022-10-18T10:03:14.844Z,78.63
2022-10-18T10:05:36.547Z,79.19
2022-10-18T10:07:59.986Z,75.92
2022-10-18T10:10:25.891Z,73.04
2022-10-18T10:12:49.313Z,72.50
2022-10-18T10:15:23.259Z,72.42
2022-10-18T10:17:54.260Z,71.07
2022-10-18T10:20:23.495Z,70.34
2022-10-18T10:22:49.897Z,68.47
2022-10-18T10:25:30.846Z,67.73
2022-10-18T10:27:53.379Z,66.33
2022-10-18T10:30:38.288Z,67.23
2022-10-18T10:33:00.474Z,67.07
2022-10-18T10:35:55.554Z,64.96
2022-10-18T10:38:27.463Z,65.62
2022-10-18T10:40:50.843Z,65.75
2022-10-18T10:43:39.284Z,64.70
2022-10-18T10:46:18.929Z,64.94
2022-10-18T10:49:09.591Z,64.97
2022-10-18T10:51:40.242Z,65.37
2022-10-18T10:54:24.454Z,63.38
2022-10-18T10:57:12.690Z,63.57
2022-10-18T10:59:45.340Z,63.73
2022-10-18T11:02:19.300Z,64.81
2022-10-18T11:04:42.747Z,64.19
2022-10-18T11:07:11.413Z,62.73
2022-10-18T11:09:56.063Z,62.14
2022-10-18T11:12:37.849Z,62.75
2022-10-18T11:15:15.739Z,60.98
2022-10-18T11:18:15.789Z,60.11
2022-10-18T11:20:58.235Z,60.63
2022-10-18T11:23:21.769Z,61.81
2022-10-18T11:25:57.650Z,61.08
2022-10-18T11:29:13.785Z,61.58
2022-10-18T11:31:59.213Z,61.39
2022-10-18T11:34:20.930Z,61.32
2022-10-18T11:37:27.163Z,61.26
2022-10-18T11:40:22.763Z,59.21
2022-10-18T11:43:34.417Z,58.15
2022-10-18T11:46:27.826Z,56.69
2022-10-18T11:49:23.916Z,57.42
2022-10-18T11:52:23.959Z,57.79
2022-10-18T11:55:05.515Z,56.66
2022-10-18T11:58:13.299Z,57.61
2022-10-18T12:00:39.634Z,57.67
2022-10-18T12:03:04.388Z,57.71
2022-10-18T12:05:29.135Z,57.96
2022-10-18T12:08:13.633Z,58.15
2022-10-18T12:10:52.830Z,57.88
2022-10-18T12:14:03.734Z,58.61
2022-10-18T12:16:50.388Z,58.86
2022-10-18T12:19:27.040Z,56.49
2022-10-18T12:21:51.377Z,56.69
2022-10-18T12:24:20.691Z,55.09
2022-10-18T12:26:42.840Z,54.77
2022-10-18T12:29:39.642Z,55.16
2022-10-18T12:32:27.772Z,54.66
2022-10-18T12:34:58.060Z,55.17
2022-10-18T12:37:54.537Z,55.42
2022-10-18T12:40:48.602Z,55.36
2022-10-18T12:43:22.665Z,55.63
2022-10-18T12:45:55.400Z,54.97
2022-10-18T12:48:28.928Z,55.42
2022-10-18T12:51:19.381Z,55.53
2022-10-18T12:53:45.922Z,55.88
2022-10-18T12:56:29.717Z,56.33
2022-10-18T12:58:51.528Z,56.23
2022-10-18T13:01:13.421Z,55.66
2022-10-18T13:03:55.054Z,55.12
2022-10-18T13:06:17.079Z,54.99
2022-10-18T13:08:42.805Z,54.92
2022-10-18T13:11:10.714Z,53.95
2022-10-18T13:14:05.968Z,53.09
2022-10-18T13:16:40.941Z,53.11
2022-10-18T13:19:33.869Z,53.83
2022-10-18T13:22:52.773Z,54.34
2022-10-18T13:25:32.682Z,54.44
2022-10-18T13:28:16.429Z,54.07
2022-10-18T13:31:12.868Z,54.39
2022-10-18T13:33:40.088Z,54.99
2022-10-18T13:36:23.035Z,55.07
2022-10-18T13:38:57.744Z,54.11
2022-10-18T13:41:46.939Z,53.92
2022-10-18T13:44:39.883Z,54.56
2022-10-18T13:47:04.720Z,54.77
2022-10-18T13:49:38.481Z,54.12
2022-10-18T13:52:21.457Z,53.23
2022-10-18T13:54:51.033Z,52.88
2022-10-18T13:57:32.006Z,52.58
2022-10-18T14:00:31.416Z,51.79
2022-10-18T14:03:58.093Z,51.84
2022-10-18T14:06:29.814Z,50.17
2022-10-18T14:09:32.924Z,49.76
2022-10-18T14:12:35.399Z,50.78
2022-10-18T14:15:26.715Z,51.01
2022-10-18T14:17:56.447Z,50.11
2022-10-18T14:20:48.706Z,50.61
2022-10-18T14:23:19.856Z,51.12
2022-10-18T14:25:42.238Z,51.55
2022-10-18T14:28:12.865Z,51.83
2022-10-18T14:30:36.458Z,51.66
2022-10-18T14:32:59.589Z,51.24
2022-10-18T14:35:39.645Z,50.48
2022-10-18T14:38:02.525Z,51.10
2022-10-18T14:40:29.183Z,51.77
2022-10-18T14:42:50.966Z,51.30
2022-10-18T14:45:20.038Z,51.62
2022-10-18T14:47:41.855Z,52.29
2022-10-18T14:50:03.783Z,52.53
2022-10-18T14:52:35.616Z,52.75
2022-10-18T14:54:59.749Z,53.05
2022-10-18T14:57:36.313Z,52.55
2022-10-18T15:00:17.567Z,51.96
2022-10-18T15:02:39.892Z,51.93
2022-10-18T15:05:21.841Z,51.41
2022-10-18T15:07:45.081Z,51.26
2022-10-18T15:10:16.401Z,50.67
2022-10-18T15:13:08.337Z,51.52
2022-10-18T15:15:31.019Z,51.87
2022-10-18T15:17:54.139Z,51.62
2022-10-18T15:20:32.767Z,51.83
2022-10-18T15:23:15.048Z,52.07
2022-10-18T15:25:37.172Z,51.55
2022-10-18T15:28:01.350Z,52.01
2022-10-18T15:30:30.056Z,52.17
2022-10-18T15:33:04.253Z,52.59
2022-10-18T15:35:33.188Z,52.50
2022-10-18T15:37:58.899Z,52.65
2022-10-18T15:40:23.685Z,53.22
2022-10-18T15:42:46.160Z,53.48
2022-10-18T15:45:38.476Z,53.45
2022-10-18T15:48:06.412Z,53.58
2022-10-18T15:51:08.356Z,54.10
2022-10-18T15:53:54.758Z,53.55
2022-10-18T15:56:35.276Z,54.05
2022-10-18T15:59:00.918Z,53.72
2022-10-18T16:01:44.778Z,54.06
2022-10-18T16:04:20.237Z,53.87
2022-10-18T16:06:42.076Z,54.34
2022-10-18T16:09:04.112Z,54.51
2022-10-18T16:11:26.511Z,54.84
2022-10-18T16:13:49.333Z,55.10
2022-10-18T16:16:20.472Z,55.31
2022-10-18T16:18:42.278Z,55.93
2022-10-18T16:21:04.247Z,55.96
2022-10-18T16:23:30.794Z,56.06
2022-10-18T16:25:52.770Z,56.34
2022-10-18T16:28:18.128Z,56.71
2022-10-18T16:30:40.292Z,56.82
2022-10-18T16:33:02.090Z,56.89
2022-10-18T16:35:24.317Z,57.23
2022-10-18T16:37:46.109Z,57.51
2022-10-18T16:40:37.670Z,57.92
2022-10-18T16:43:02.897Z,58.32
2022-10-18T16:45:24.874Z,58.66
2022-10-18T16:47:46.724Z,58.96
2022-10-18T16:50:17.521Z,59.18
2022-10-18T16:52:39.486Z,59.60
2022-10-18T16:55:01.309Z,60.07
2022-10-18T16:57:23.267Z,60.30
2022-10-18T16:59:45.032Z,60.35
2022-10-18T17:02:09.261Z,60.70
2022-10-18T17:04:31.086Z,61.18
2022-10-18T17:06:57.626Z,61.16
2022-10-18T17:09:19.463Z,61.70
2022-10-18T17:11:41.955Z,62.04
2022-10-18T17:14:03.875Z,62.32
2022-10-18T17:16:35.512Z,62.65
2022-10-18T17:19:01.416Z,63.07
2022-10-18T17:21:26.021Z,63.09
2022-10-18T17:23:48.446Z,63.25
2022-10-18T17:26:28.285Z,63.66
2022-10-18T17:28:52.609Z,63.87
2022-10-18T17:31:15.208Z,64.21
2022-10-18T17:33:37.616Z,64.32
2022-10-18T17:35:59.546Z,64.67
2022-10-18T17:38:21.339Z,64.75
2022-10-18T17:40:43.515Z,64.87
2022-10-18T17:43:05.274Z,65.37
2022-10-18T17:45:27.413Z,65.88
2022-10-18T17:47:49.444Z,66.44
2022-10-18T17:50:11.854Z,66.57
2022-10-18T17:52:33.752Z,66.39
2022-10-18T17:54:55.660Z,66.58
2022-10-18T17:57:18.647Z,66.85
2022-10-18T17:59:40.382Z,66.52
2022-10-18T18:02:02.255Z,66.46
2022-10-18T18:04:25.708Z,66.39
2022-10-18T18:06:49.051Z,66.91
2022-10-18T18:09:15.280Z,66.97
2022-10-18T18:11:40.093Z,67.14
2022-10-18T18:14:02.256Z,67.02
2022-10-18T18:16:27.865Z,67.57
2022-10-18T18:18:52.773Z,67.60
2022-10-18T18:21:14.808Z,68.04
2022-10-18T18:23:36.877Z,67.90
2022-10-18T18:25:59.946Z,68.00
2022-10-18T18:28:21.838Z,68.80
2022-10-18T18:30:43.766Z,69.04
2022-10-18T18:33:05.697Z,69.11
2022-10-18T18:35:27.578Z,68.89
2022-10-18T18:37:52.653Z,69.13
2022-10-18T18:40:14.423Z,69.18
2022-10-18T18:42:36.396Z,69.17
2022-10-18T18:44:58.294Z,69.34
2022-10-18T18:47:23.238Z,69.64
2022-10-18T18:49:45.133Z,69.78
2022-10-18T18:52:07.458Z,69.75
2022-10-18T18:54:30.491Z,69.95
2022-10-18T18:56:52.328Z,70.12
2022-10-18T18:59:15.309Z,70.10
2022-10-18T19:01:37.997Z,70.28
2022-10-18T19:04:00.691Z,70.58
2022-10-18T19:06:31.127Z,70.92
2022-10-18T19:09:00.154Z,70.49
2022-10-18T19:11:22.976Z,70.78
2022-10-18T19:13:45.762Z,71.14
2022-10-18T19:16:31.723Z,71.16
2022-10-18T19:19:05.230Z,71.27
2022-10-18T19:21:32.626Z,71.18
2022-10-18T19:23:56.116Z,71.34
2022-10-18T19:26:55.849Z,71.65
2022-10-18T19:29:27.803Z,71.41
2022-10-18T19:31:53.436Z,71.65
2022-10-18T19:34:16.573Z,71.72
2022-10-18T19:36:40.679Z,71.93
2022-10-18T19:39:03.681Z,72.20
2022-10-18T19:41:28.280Z,71.95
2022-10-18T19:43:51.474Z,72.49
2022-10-18T19:46:13.274Z,72.58
2022-10-18T19:48:35.043Z,72.57
2022-10-18T19:50:57.652Z,72.56
2022-10-18T19:53:19.621Z,72.63
2022-10-18T19:55:41.464Z,72.26
2022-10-18T19:58:03.430Z,72.70
2022-10-18T20:00:25.291Z,72.81
2022-10-18T20:02:47.178Z,72.91
2022-10-18T20:05:09.658Z,73.40
2022-10-18T20:07:31.568Z,73.41
2022-10-18T20:09:53.384Z,73.11
2022-10-18T20:12:15.213Z,73.68
2022-10-18T20:14:36.986Z,73.71
2022-10-18T20:16:58.914Z,73.51
2022-10-18T20:19:20.765Z,73.63
2022-10-18T20:21:42.583Z,73.86
2022-10-18T20:24:06.133Z,73.85
2022-10-18T20:26:28.230Z,73.51
2022-10-18T20:28:59.812Z,73.60
2022-10-18T20:31:27.513Z,73.87
2022-10-18T20:33:59.869Z,73.73
2022-10-18T20:36:22.113Z,73.89
2022-10-18T20:38:46.923Z,73.72
2022-10-18T20:41:13.646Z,73.96
2022-10-18T20:43:36.158Z,74.21
2022-10-18T20:45:59.691Z,74.00
2022-10-18T20:48:21.708Z,74.07
2022-10-18T20:50:43.562Z,74.12
2022-10-18T20:53:05.401Z,74.11
2022-10-18T20:55:29.477Z,74.54
2022-10-18T20:57:51.334Z,74.16
2022-10-18T21:00:14.096Z,74.25
2022-10-18T21:02:35.892Z,74.34
2022-10-18T21:04:57.983Z,74.42
2022-10-18T21:07:19.840Z,74.51
2022-10-18T21:09:41.653Z,74.66
2022-10-18T21:12:03.717Z,74.55
2022-10-18T21:14:26.721Z,74.87
2022-10-18T21:16:50.036Z,74.59
2022-10-18T21:19:25.280Z,74.86
2022-10-18T21:21:50.616Z,74.80
2022-10-18T21:24:13.955Z,74.92
2022-10-18T21:26:37.022Z,74.82
2022-10-18T21:29:00.242Z,74.96
2022-10-18T21:31:28.560Z,75.01
2022-10-18T21:34:03.568Z,75.00
2022-10-18T21:36:29.811Z,74.88
2022-10-18T21:38:53.187Z,74.97
2022-10-18T21:41:17.961Z,74.93
2022-10-18T21:43:46.920Z,74.83
2022-10-18T21:46:10.268Z,75.12
2022-10-18T21:48:32.063Z,75.06
2022-10-18T21:50:54.170Z,75.10
2022-10-18T21:53:16.642Z,75.12
2022-10-18T21:55:38.475Z,75.04
2022-10-18T21:58:00.276Z,75.04
2022-10-18T22:00:22.113Z,74.91
2022-10-18T22:02:43.858Z,75.20
2022-10-18T22:05:08.357Z,75.01
2022-10-18T22:07:33.531Z,75.45
2022-10-18T22:09:55.610Z,75.35
2022-10-18T22:12:17.426Z,75.28
2022-10-18T22:14:39.234Z,75.29
2022-10-18T22:17:01.157Z,75.12
2022-10-18T22:19:22.963Z,75.50
2022-10-18T22:21:44.745Z,75.33
2022-10-18T22:24:09.029Z,75.30
2022-10-18T22:26:35.484Z,75.09
2022-10-18T22:29:04.589Z,75.10
2022-10-18T22:31:31.045Z,75.15
2022-10-18T22:34:00.278Z,75.32
2022-10-18T22:36:23.188Z,75.29
2022-10-18T22:38:44.930Z,75.48
2022-10-18T22:41:12.215Z,75.63
2022-10-18T22:43:35.237Z,75.61
2022-10-18T22:46:04.126Z,75.83
2022-10-18T22:48:25.943Z,75.90
2022-10-18T22:50:47.663Z,76.12
2022-10-18T22:53:09.487Z,75.77
2022-10-18T22:55:31.374Z,75.87
2022-10-18T22:57:56.206Z,75.89
2022-10-18T23:00:17.994Z,76.07
2022-10-18T23:02:39.913Z,76.03
2022-10-18T23:05:01.731Z,76.11
2022-10-18T23:07:23.603Z,76.00
2022-10-18T23:09:45.393Z,76.01
2022-10-18T23:12:07.227Z,75.78
2022-10-18T23:14:29.024Z,76.00
2022-10-18T23:16:50.840Z,75.82
2022-10-18T23:19:16.706Z,76.04
2022-10-18T23:21:38.529Z,76.01
2022-10-18T23:24:00.383Z,76.04
2022-10-18T23:26:27.843Z,76.09
2022-10-18T23:28:52.200Z,76.00
2022-10-18T23:31:24.388Z,75.83
2022-10-18T23:33:50.313Z,76.26
2022-10-18T23:36:12.631Z,76.30
2022-10-18T23:38:36.059Z,76.35
2022-10-18T23:40:58.400Z,76.27
2022-10-18T23:43:20.146Z,76.37
2022-10-18T23:45:42.478Z,76.30
2022-10-18T23:48:04.333Z,76.44
2022-10-18T23:50:26.106Z,76.31
2022-10-18T23:52:47.907Z,76.39
2022-10-18T23:55:09.739Z,76.60
2022-10-18T23:57:31.840Z,76.65
2022-10-18T23:59:53.880Z,76.50
